Royal Clipper — 9HA2796 — position and weather

sailwx.info

Track history (hours):
 
Tides and Currents Weather Stations Pressure Air Temp Water Temp Dewpoint Dewpoint Depression Visibility Wind Speed Wind Dir Waves Ship Positions

Royal Clipper

Last reported at 2019-Feb-15 22:59 UTC. Time now 2019-Feb-16 04:14 UTC.
Position N 14°11' W 060°54'.

Length 137 m; draft 6.2 m.

Type: Ship. MMSI: 215813000.

Date/timePositionNaut miles runAvg speedWind from/ knotsBaromVisibWave heightAir tempDewpointWater temp
2019-Feb-15 22:59N 14°11' W 060°54'4 7.6
2019-Feb-15 22:28N 14°13' W 060°57'17 4.9
2019-Feb-15 18:57N 14°26' W 061°09'4 7.5
2019-Feb-15 18:26N 14°29' W 061°07'180 4.2
2019-Feb-13 23:50N 16°58' W 062°51'14 7.7
2019-Feb-13 22:02N 17°10' W 062°44'0 7.4
2019-Feb-13 21:59N 17°10' W 062°44'12 0.9
2019-Feb-13 08:53N 16°59' W 062°39'  
2019-Feb-10 23:25N 14°12' W 061°06'410.1
2019-Feb-10 23:00N 14°09' W 061°03'5 9.4
2019-Feb-10 22:31N 14°06' W 060°59'1 2.3
2019-Feb-10 21:59N 14°05' W 060°58'0 0.0
2019-Feb-10 21:29N 14°05' W 060°58'0 0.0
2019-Feb-10 20:59N 14°05' W 060°58'0 0.0
2019-Feb-10 16:53N 14°05' W 060°58'  
2019-Feb-07 23:35N 14°21' W 061°14'0 6.3
2019-Feb-07 23:31N 14°21' W 061°14'3 6.3
2019-Feb-07 23:01N 14°24' W 061°12'3 5.9
2019-Feb-07 22:31N 14°26' W 061°10'3 5.7
2019-Feb-07 22:01N 14°28' W 061°08'3 5.5
2019-Feb-07 21:31N 14°30' W 061°06'0 0.4
2019-Feb-07 20:48N 14°30' W 061°06'0 0.0
2019-Feb-07 20:06N 14°30' W 061°06'0 0.0
2019-Feb-07 19:09N 14°30' W 061°06'0 0.0
2019-Feb-07 18:42N 14°30' W 061°06'0 0.1
2019-Feb-07 17:54N 14°30' W 061°06'2 5.8
2019-Feb-07 17:30N 14°31' W 061°08'2 3.9
2019-Feb-07 17:00N 14°33' W 061°07'2 4.9
2019-Feb-07 16:30N 14°35' W 061°05'1 2.4
2019-Feb-07 15:56N 14°36' W 061°04'0 0.0
2019-Feb-07 15:29N 14°36' W 061°04'0 0.0
2019-Feb-07 14:56N 14°36' W 061°04'0 0.0
2019-Feb-07 14:17N 14°36' W 061°04'0 0.0
2019-Feb-07 13:56N 14°36' W 061°04'0 0.0
2019-Feb-07 13:29N 14°36' W 061°04'0 0.0
2019-Feb-07 12:53N 14°36' W 061°04'0 0.0
2019-Feb-07 12:29N 14°36' W 061°04'0 0.0
2019-Feb-07 11:59N 14°36' W 061°04'0 0.3
2019-Feb-07 11:30N 14°36' W 061°05'1 3.0
2019-Feb-07 11:00N 14°35' W 061°06'3 6.3
2019-Feb-07 10:31N 14°32' W 061°07'3 6.9
2019-Feb-07 10:00N 14°29' W 061°08'3 5.0
2019-Feb-07 09:30N 14°27' W 061°09'510.0
2019-Feb-07 08:57N 14°21' W 061°10'  
Track history (hours):
 
Tides and Currents Weather Stations Pressure Air Temp Water Temp Dewpoint Dewpoint Depression Visibility Wind Speed Wind Dir Waves Ship Positions

Royal Clipper

Last reported at 2019-Feb-15 22:59 UTC. Time now 2019-Feb-16 04:14 UTC.
Position N 14°11' W 060°54'.

Length 137 m; draft 6.2 m.

Type: Ship. MMSI: 215813000.

Date/timePositionNaut miles runAvg speedWind from/ knotsBaromVisibWave heightAir tempDewpointWater temp
2019-Feb-15 22:59N 14°11' W 060°54'4 7.6
2019-Feb-15 22:28N 14°13' W 060°57'17 4.9
2019-Feb-15 18:57N 14°26' W 061°09'4 7.5
2019-Feb-15 18:26N 14°29' W 061°07'180 4.2
2019-Feb-13 23:50N 16°58' W 062°51'14 7.7
2019-Feb-13 22:02N 17°10' W 062°44'0 7.4
2019-Feb-13 21:59N 17°10' W 062°44'12 0.9
2019-Feb-13 08:53N 16°59' W 062°39'  
2019-Feb-10 23:25N 14°12' W 061°06'410.1
2019-Feb-10 23:00N 14°09' W 061°03'5 9.4
2019-Feb-10 22:31N 14°06' W 060°59'1 2.3
2019-Feb-10 21:59N 14°05' W 060°58'0 0.0
2019-Feb-10 21:29N 14°05' W 060°58'0 0.0
2019-Feb-10 20:59N 14°05' W 060°58'0 0.0
2019-Feb-10 16:53N 14°05' W 060°58'  
2019-Feb-07 23:35N 14°21' W 061°14'0 6.3
2019-Feb-07 23:31N 14°21' W 061°14'3 6.3
2019-Feb-07 23:01N 14°24' W 061°12'3 5.9
2019-Feb-07 22:31N 14°26' W 061°10'3 5.7
2019-Feb-07 22:01N 14°28' W 061°08'3 5.5
2019-Feb-07 21:31N 14°30' W 061°06'0 0.4
2019-Feb-07 20:48N 14°30' W 061°06'0 0.0
2019-Feb-07 20:06N 14°30' W 061°06'0 0.0
2019-Feb-07 19:09N 14°30' W 061°06'0 0.0
2019-Feb-07 18:42N 14°30' W 061°06'0 0.1
2019-Feb-07 17:54N 14°30' W 061°06'2 5.8
2019-Feb-07 17:30N 14°31' W 061°08'2 3.9
2019-Feb-07 17:00N 14°33' W 061°07'2 4.9
2019-Feb-07 16:30N 14°35' W 061°05'1 2.4
2019-Feb-07 15:56N 14°36' W 061°04'0 0.0
2019-Feb-07 15:29N 14°36' W 061°04'0 0.0
2019-Feb-07 14:56N 14°36' W 061°04'0 0.0
2019-Feb-07 14:17N 14°36' W 061°04'0 0.0
2019-Feb-07 13:56N 14°36' W 061°04'0 0.0
2019-Feb-07 13:29N 14°36' W 061°04'0 0.0
2019-Feb-07 12:53N 14°36' W 061°04'0 0.0
2019-Feb-07 12:29N 14°36' W 061°04'0 0.0
2019-Feb-07 11:59N 14°36' W 061°04'0 0.3
2019-Feb-07 11:30N 14°36' W 061°05'1 3.0
2019-Feb-07 11:00N 14°35' W 061°06'3 6.3
2019-Feb-07 10:31N 14°32' W 061°07'3 6.9
2019-Feb-07 10:00N 14°29' W 061°08'3 5.0
2019-Feb-07 09:30N 14°27' W 061°09'510.0
2019-Feb-07 08:57N 14°21' W 061°10'  

Dump ship's entire track history